LFMHLFMT

Guest
Details From LFMH - Saint Etienne Boutheon
To LFMT - Montpellier/mediterranee
Flight Number -
Tags Generated
Created
Modified
Stats Distance 120 nm / 221 km
Max Altitude 0 ft / 0 m
Waypoints 2
Social Downloads 2
Likes 0
Share VATSIM

Download

Looking for another format? Having issues loading an existing format? Contact us
Advertisement - Login to hide

Notes

Generated

Route

LFMH LFMT

ID Type Via Altitude Latitude Longitude Leg Dist Tot Dist Heading (true) Name
O LFMH APT - 0 ft / 0 m 45.55120˚ 4.29514˚ - 0 nm - -
O LFMT APT - 0 ft / 0 m 43.57586˚ 3.95193˚ 119 nm 119 nm 187° / 187° -

Altitude Profile

Advertisement - Login to hide

LFMH

Details ICAO LFMH (EBU)
Name Saint Etienne Boutheon
Region France
Timezone Europe/Paris (UTC+2.0)
Stats Elevation 1,325 ft / 404 m (AMSL)
Location 45.540868° 4.296450°
Runways 1
Magnetic Variation 1.341° E

METAR

LFMH 262330Z AUTO VRB02KT CAVOK 19/14 Q1017

Decode

TAF

TAF LFMH 262002Z 2620/2715 CNL

Decode

Departure Runways

ID Width Length Bearing (true) Bearing (mag) Surface Threshold Offset Overrun Length
18 148 ft / 45 m 7,568 ft / 2,307 m 174.93° 173.59° Asphalt 984 ft / 300 m 0 ft / 0 m
36 148 ft / 45 m 7,568 ft / 2,307 m 354.93° 353.59° Asphalt 558 ft / 170 m 0 ft / 0 m

LFMT

Details ICAO LFMT (MPL)
Name Montpellier/Mediterranee
Region France
Timezone Europe/Paris (UTC+2.0)
Stats Elevation 16 ft / 5 m (AMSL)
Location 43.576262° 3.963261°
Runways 2
Magnetic Variation 1.299° E

METAR

LFMT 262330Z AUTO 03005KT 360V060 CAVOK 17/14 Q1016 NOSIG

Decode

TAF

TAF LFMT 262000Z 2621/2721 12005KT CAVOK BECMG 2708/2710 12010KT PROB30 TEMPO 2711/2721 SCT110CB

Decode

Destination Runways

ID Width Length Bearing (true) Bearing (mag) Surface Threshold Offset Overrun Length
13L 164 ft / 50 m 8,525 ft / 2,598 m 124.78° 123.48° Asphalt 0 ft / 0 m 0 ft / 0 m
13R 98 ft / 30 m 3,611 ft / 1,101 m 124.80° 123.50° Asphalt 328 ft / 100 m 0 ft / 0 m
31L 98 ft / 30 m 3,611 ft / 1,101 m 304.81° 303.51° Asphalt 0 ft / 0 m 0 ft / 0 m
31R 164 ft / 50 m 8,525 ft / 2,598 m 304.80° 303.50° Asphalt 0 ft / 0 m 0 ft / 0 m

Approach Navaids

Runway Type Ident Frequency Range Bearing (true) Bearing (mag) Slope Elevation
31R Localiser FG 108.55 MHz 27 nm / 50 km 304.75° 303.45° - 16 ft / 5 m (AMSL)
31R Glidescope FG 108.55 MHz 27 nm / 50 km 304.75° 303.45° 3.00° 16 ft / 5 m (AMSL)
31R DME FG 108.55 MHz 27 nm / 50 km - - - 16 ft / 5 m (AMSL)

Popular Alternatives